Time;durP1;ratioP1;P1;durP2;ratioP2;P2;SDS_P1;SDS_P2;PMS_P1;PMS_P2;Temp;Humidity;BMP_temperature;BMP_pressure;BME280_temperature;BME280_humidity;BME280_pressure;Samples;Min_cycle;Max_cycle;Signal;HPM_P1;HPM_P2
2022/07/19 00:00:01;;;;;;;3.07;2.83;;;19.30;96.20;;;;;;5069071;28;21019;-48
2022/07/19 00:02:28;;;;;;;3.77;2.80;;;19.30;96.20;;;;;;5069365;28;20852;-49
2022/07/19 00:04:55;;;;;;;2.83;2.63;;;19.40;96.20;;;;;;5069493;28;20444;-47
2022/07/19 00:07:22;;;;;;;2.87;2.60;;;19.30;96.00;;;;;;5069263;28;20469;-49
2022/07/19 00:09:49;;;;;;;3.00;2.70;;;19.30;96.20;;;;;;5068803;28;20445;-48
2022/07/19 00:12:17;;;;;;;3.37;3.07;;;19.20;96.30;;;;;;5069201;28;20545;-50
2022/07/19 00:14:44;;;;;;;3.00;2.60;;;19.10;96.70;;;;;;5069246;28;20452;-50
2022/07/19 00:17:11;;;;;;;3.43;2.90;;;19.20;96.50;;;;;;5069339;28;20448;-48
2022/07/19 00:19:38;;;;;;;3.00;2.77;;;18.90;96.70;;;;;;5069086;28;20861;-52
2022/07/19 00:22:06;;;;;;;3.20;2.90;;;18.90;96.50;;;;;;5069616;28;20526;-48
2022/07/19 00:24:33;;;;;;;3.27;2.67;;;18.90;96.60;;;;;;5069197;28;20440;-52
2022/07/19 00:27:00;;;;;;;3.17;2.87;;;18.90;96.40;;;;;;5069426;28;20504;-48
2022/07/19 00:29:28;;;;;;;3.27;2.47;;;18.90;96.30;;;;;;5068942;28;21190;-48
2022/07/19 00:31:55;;;;;;;2.67;2.47;;;18.80;96.60;;;;;;5069118;28;20508;-52
2022/07/19 00:34:22;;;;;;;4.27;3.20;;;18.80;96.90;;;;;;5069269;28;20478;-48
2022/07/19 00:36:49;;;;;;;3.50;2.73;;;18.90;96.90;;;;;;5069924;28;21085;-49
2022/07/19 00:39:16;;;;;;;4.17;3.20;;;18.90;96.90;;;;;;5072459;28;20447;-48
2022/07/19 00:41:44;;;;;;;3.93;3.30;;;18.80;96.90;;;;;;5072595;28;20456;-50
2022/07/19 00:44:12;;;;;;;3.30;2.90;;;18.80;96.90;;;;;;5072743;28;21019;-48
2022/07/19 00:46:40;;;;;;;2.80;2.50;;;18.80;97.10;;;;;;5072372;28;20471;-48
2022/07/19 00:49:07;;;;;;;3.70;3.07;;;18.70;97.00;;;;;;5072326;28;20452;-48
2022/07/19 00:51:36;;;;;;;3.57;2.77;;;18.80;97.10;;;;;;5072295;28;20947;-52
2022/07/19 00:54:04;;;;;;;4.00;2.97;;;18.80;96.90;;;;;;5072168;28;20826;-48
2022/07/19 00:56:33;;;;;;;3.30;3.00;;;18.90;97.00;;;;;;5072298;28;20520;-49
2022/07/19 00:59:02;;;;;;;3.10;2.77;;;19.00;96.80;;;;;;5071989;28;20441;-48
2022/07/19 01:01:29;;;;;;;3.20;2.90;;;19.10;96.70;;;;;;5072224;28;20476;-50
2022/07/19 01:03:59;;;;;;;3.60;2.97;;;19.10;96.70;;;;;;5072119;28;20921;-48
2022/07/19 01:06:26;;;;;;;4.83;2.77;;;19.00;96.80;;;;;;5072327;28;20484;-48
2022/07/19 01:08:53;;;;;;;3.13;2.83;;;18.80;96.90;;;;;;5071605;28;20448;-49
2022/07/19 01:11:20;;;;;;;3.00;2.50;;;18.70;97.10;;;;;;5072244;28;20855;-48
2022/07/19 01:13:48;;;;;;;2.97;2.57;;;18.60;97.40;;;;;;5071820;28;20473;-48
2022/07/19 01:16:15;;;;;;;3.40;3.10;;;18.70;97.20;;;;;;5071866;28;20856;-48
2022/07/19 01:18:42;;;;;;;4.70;3.10;;;18.80;97.30;;;;;;5072009;28;20463;-48
2022/07/19 01:21:18;;;;;;;3.30;2.90;;;18.80;97.20;;;;;;5071742;28;20913;-48
2022/07/19 01:23:45;;;;;;;3.30;2.87;;;18.70;97.30;;;;;;5071936;28;20494;-49
2022/07/19 01:26:12;;;;;;;3.57;2.97;;;18.80;97.30;;;;;;5071652;28;20496;-51
2022/07/19 01:28:40;;;;;;;3.10;2.80;;;18.70;97.30;;;;;;5071674;28;20448;-52
2022/07/19 01:31:07;;;;;;;2.93;2.57;;;18.60;97.20;;;;;;5071413;28;20876;-51
2022/07/19 01:33:38;;;;;;;3.43;3.13;;;18.60;97.70;;;;;;5071493;28;20518;-50
2022/07/19 01:36:05;;;;;;;3.33;3.03;;;18.60;97.20;;;;;;5071595;28;20495;-51
2022/07/19 01:38:34;;;;;;;3.07;2.70;;;18.40;97.30;;;;;;5071539;28;20440;-48
2022/07/19 01:41:01;;;;;;;3.33;3.03;;;18.40;97.30;;;;;;5071097;28;20441;-48
2022/07/19 01:43:28;;;;;;;3.30;3.00;;;18.30;97.50;;;;;;5071421;28;20440;-49
2022/07/19 01:45:55;;;;;;;4.70;3.43;;;18.30;97.40;;;;;;5071320;28;20502;-48
2022/07/19 01:48:22;;;;;;;3.13;2.83;;;18.40;97.60;;;;;;5070957;28;20860;-49
2022/07/19 01:50:49;;;;;;;3.60;2.83;;;18.50;97.50;;;;;;5071068;28;20498;-47
2022/07/19 01:53:16;;;;;;;2.90;2.63;;;18.50;97.50;;;;;;5071165;28;20803;-50
2022/07/19 01:55:45;;;;;;;3.30;3.00;;;18.50;97.60;;;;;;5071453;28;20816;-49
2022/07/19 01:58:12;;;;;;;5.90;3.03;;;18.60;97.50;;;;;;5071207;28;20474;-44
2022/07/19 02:00:38;;;;;;;5.23;2.47;;;18.50;97.50;;;;;;5070803;28;20448;-49
2022/07/19 02:03:05;;;;;;;3.43;3.13;;;18.50;97.40;;;;;;5071124;28;20468;-48
2022/07/19 02:05:32;;;;;;;3.97;2.80;;;18.40;97.30;;;;;;5070992;28;20779;-48
2022/07/19 02:08:01;;;;;;;3.63;3.10;;;18.40;97.30;;;;;;5070848;28;20530;-48
2022/07/19 02:10:28;;;;;;;3.10;2.80;;;18.50;97.40;;;;;;5070172;28;20460;-49
2022/07/19 02:12:56;;;;;;;3.60;3.00;;;18.60;97.30;;;;;;5070771;28;20497;-47
2022/07/19 02:15:23;;;;;;;3.20;2.80;;;18.50;97.30;;;;;;5070578;28;20962;-51
2022/07/19 02:17:50;;;;;;;3.00;2.70;;;18.40;97.30;;;;;;5070840;28;20506;-50
2022/07/19 02:20:17;;;;;;;3.60;3.23;;;18.30;97.30;;;;;;5070475;28;20704;-47
2022/07/19 02:22:44;;;;;;;3.50;3.00;;;18.10;97.50;;;;;;5070749;28;20444;-48
2022/07/19 02:25:12;;;;;;;3.43;3.13;;;18.00;97.70;;;;;;5070562;28;20474;-48
2022/07/19 02:27:39;;;;;;;3.40;2.70;;;17.90;98.00;;;;;;5070327;28;20471;-48
2022/07/19 02:30:09;;;;;;;3.20;2.90;;;18.00;98.00;;;;;;5070424;28;21131;-48
2022/07/19 02:32:36;;;;;;;3.33;3.03;;;18.10;98.00;;;;;;5070220;28;20800;-47
2022/07/19 02:35:03;;;;;;;3.87;3.47;;;18.20;97.90;;;;;;5070120;28;20809;-48
2022/07/19 02:37:30;;;;;;;3.43;3.13;;;18.20;97.80;;;;;;5070316;28;20985;-48
2022/07/19 02:39:57;;;;;;;3.50;3.20;;;18.20;97.80;;;;;;5070035;28;20527;-48
2022/07/19 02:42:24;;;;;;;3.17;2.60;;;18.10;97.80;;;;;;5070567;28;20444;-48
2022/07/19 02:44:51;;;;;;;3.70;2.90;;;18.10;97.80;;;;;;5070357;28;20468;-48
2022/07/19 02:47:19;;;;;;;3.50;3.20;;;18.20;97.90;;;;;;5070003;28;20460;-49
2022/07/19 02:49:46;;;;;;;3.43;3.13;;;18.20;97.80;;;;;;5069986;28;20488;-49
2022/07/19 02:52:13;;;;;;;3.33;3.03;;;18.10;97.70;;;;;;5070117;28;20492;-48
2022/07/19 02:54:40;;;;;;;2.50;2.30;;;18.00;97.60;;;;;;5069920;28;20545;-48
2022/07/19 02:57:07;;;;;;;2.90;2.60;;;17.90;97.80;;;;;;5070109;28;20492;-49
2022/07/19 02:59:34;;;;;;;3.63;3.33;;;18.00;97.90;;;;;;5069146;28;20445;-49
2022/07/19 03:02:01;;;;;;;4.50;3.70;;;17.90;97.80;;;;;;5070326;28;20444;-50
2022/07/19 03:04:30;;;;;;;3.30;2.97;;;17.90;98.00;;;;;;5070073;28;20476;-48
2022/07/19 03:06:56;;;;;;;3.17;2.87;;;17.90;98.00;;;;;;5069875;28;20509;-50
2022/07/19 03:09:23;;;;;;;4.10;3.13;;;17.90;98.00;;;;;;5069353;28;20907;-47
2022/07/19 03:11:50;;;;;;;2.90;2.60;;;18.00;98.00;;;;;;5069947;28;20472;-48
2022/07/19 03:14:17;;;;;;;3.37;2.80;;;18.00;97.90;;;;;;5069749;28;20470;-48
2022/07/19 03:16:44;;;;;;;4.27;3.50;;;18.00;97.90;;;;;;5069778;28;20465;-49
2022/07/19 03:19:11;;;;;;;3.70;3.07;;;18.00;98.00;;;;;;5069656;28;20510;-51
2022/07/19 03:21:40;;;;;;;3.90;3.00;;;18.00;97.90;;;;;;5069895;28;20445;-50
2022/07/19 03:24:07;;;;;;;2.93;2.60;;;18.10;97.90;;;;;;5069892;28;20498;-48
2022/07/19 03:26:34;;;;;;;3.53;2.77;;;17.90;97.80;;;;;;5071081;28;20494;-49
2022/07/19 03:29:01;;;;;;;3.10;2.80;;;17.70;98.00;;;;;;5069437;28;20433;-50
2022/07/19 03:31:28;;;;;;;5.33;3.00;;;17.70;98.30;;;;;;5069779;28;20441;-47
2022/07/19 03:33:55;;;;;;;3.53;3.23;;;17.70;98.30;;;;;;5069520;28;20467;-48
2022/07/19 03:36:22;;;;;;;3.60;3.30;;;17.60;98.40;;;;;;5069680;28;21066;-48
2022/07/19 03:38:50;;;;;;;3.77;3.20;;;17.60;98.60;;;;;;5069463;28;20445;-48
2022/07/19 03:41:17;;;;;;;3.33;3.03;;;17.70;98.50;;;;;;5069607;28;20452;-48
2022/07/19 03:43:44;;;;;;;3.80;3.17;;;17.70;98.40;;;;;;5069690;28;20444;-48
2022/07/19 03:46:11;;;;;;;3.17;2.87;;;17.70;98.40;;;;;;5069581;28;20464;-48
2022/07/19 03:48:38;;;;;;;5.63;3.13;;;17.60;98.50;;;;;;5069498;28;20498;-48
2022/07/19 03:51:05;;;;;;;4.80;3.00;;;17.70;98.60;;;;;;5069502;28;20483;-51
2022/07/19 03:53:34;;;;;;;3.77;3.33;;;17.70;98.50;;;;;;5069473;28;20465;-50
2022/07/19 03:56:03;;;;;;;3.20;2.90;;;17.60;98.60;;;;;;5069416;28;20934;-48
2022/07/19 03:58:30;;;;;;;3.77;3.27;;;17.60;98.70;;;;;;5069631;28;20510;-48
2022/07/19 04:00:57;;;;;;;5.47;3.20;;;17.60;98.80;;;;;;5068943;28;20437;-48
2022/07/19 04:03:24;;;;;;;3.60;2.87;;;17.60;98.90;;;;;;5069407;28;20445;-49
2022/07/19 04:05:51;;;;;;;3.90;2.73;;;17.60;98.90;;;;;;5069225;28;20432;-48
2022/07/19 04:08:18;;;;;;;3.33;3.03;;;17.60;99.10;;;;;;5069288;28;20729;-46
2022/07/19 04:10:45;;;;;;;3.70;3.07;;;17.50;98.90;;;;;;5069384;28;20441;-48
2022/07/19 04:13:13;;;;;;;3.70;3.40;;;17.40;99.10;;;;;;5072670;28;20537;-47
2022/07/19 04:15:40;;;;;;;4.13;3.00;;;17.30;99.30;;;;;;5073116;28;20923;-49
2022/07/19 04:18:07;;;;;;;3.83;3.43;;;17.40;99.50;;;;;;5072996;28;20455;-48
2022/07/19 04:20:34;;;;;;;4.00;3.60;;;17.60;99.40;;;;;;5072707;28;20468;-48
2022/07/19 04:23:01;;;;;;;3.00;2.70;;;17.60;99.30;;;;;;5072913;28;20459;-48
2022/07/19 04:25:28;;;;;;;2.90;2.70;;;17.60;99.10;;;;;;5072916;28;20849;-48
2022/07/19 04:27:55;;;;;;;4.80;3.33;;;17.60;99.20;;;;;;5072828;28;20708;-48
2022/07/19 04:30:24;;;;;;;3.50;3.20;;;17.60;99.30;;;;;;5072792;28;20497;-49
2022/07/19 04:32:50;;;;;;;3.83;3.17;;;17.50;99.40;;;;;;5073287;28;20943;-49
2022/07/19 04:35:17;;;;;;;3.57;3.27;;;17.60;99.40;;;;;;5072618;28;20476;-49
2022/07/19 04:37:44;;;;;;;3.93;3.53;;;17.60;99.60;;;;;;5072652;28;20525;-49
2022/07/19 04:40:12;;;;;;;3.43;3.13;;;17.60;99.80;;;;;;5072245;28;20517;-48
2022/07/19 04:42:39;;;;;;;3.83;3.53;;;17.70;99.60;;;;;;5072754;28;20440;-49
2022/07/19 04:45:07;;;;;;;3.80;3.50;;;17.70;99.70;;;;;;5073269;28;20506;-48
2022/07/19 04:47:35;;;;;;;4.03;3.17;;;17.80;99.60;;;;;;5072590;28;20538;-48
2022/07/19 04:50:03;;;;;;;3.70;3.40;;;17.80;99.50;;;;;;5072355;28;20448;-50
2022/07/19 04:52:30;;;;;;;4.40;3.50;;;17.80;99.60;;;;;;5072748;28;20437;-45
2022/07/19 04:54:57;;;;;;;4.67;3.27;;;17.70;99.70;;;;;;5072678;28;20468;-48
2022/07/19 04:57:24;;;;;;;4.57;3.57;;;17.70;99.80;;;;;;5072383;28;20498;-48
2022/07/19 04:59:51;;;;;;;3.70;3.00;;;17.80;99.80;;;;;;5072081;28;20478;-48
2022/07/19 05:02:18;;;;;;;4.47;4.00;;;17.70;99.80;;;;;;5072597;28;20586;-49
2022/07/19 05:04:46;;;;;;;3.07;2.80;;;17.90;99.90;;;;;;5072184;28;20432;-48
2022/07/19 05:07:13;;;;;;;3.40;3.20;;;17.80;99.90;;;;;;5072140;28;20469;-50
2022/07/19 05:09:40;;;;;;;2.97;2.67;;;17.80;99.90;;;;;;5071713;28;20452;-52
2022/07/19 05:12:09;;;;;;;3.97;3.57;;;17.70;99.90;;;;;;5072039;28;20493;-49
2022/07/19 05:14:36;;;;;;;5.27;3.43;;;17.70;99.90;;;;;;5071799;28;20473;-50
2022/07/19 05:17:03;;;;;;;4.17;3.03;;;17.80;99.90;;;;;;5071892;28;20468;-49
2022/07/19 05:19:30;;;;;;;3.73;3.43;;;17.70;99.90;;;;;;5071799;28;20455;-48
2022/07/19 05:21:58;;;;;;;3.60;3.30;;;17.80;99.90;;;;;;5071808;28;20463;-51
2022/07/19 05:24:25;;;;;;;3.90;3.60;;;17.80;99.90;;;;;;5071838;28;20444;-50
2022/07/19 05:26:52;;;;;;;4.50;3.97;;;17.70;99.90;;;;;;5071688;28;20984;-48
2022/07/19 05:29:19;;;;;;;4.07;3.50;;;17.60;99.90;;;;;;5071528;28;20476;-48
2022/07/19 05:31:47;;;;;;;3.37;3.07;;;17.60;99.90;;;;;;5071920;28;20444;-48
2022/07/19 05:34:14;;;;;;;3.70;3.23;;;17.60;99.90;;;;;;5071705;28;20460;-50
2022/07/19 05:36:42;;;;;;;5.17;3.83;;;17.70;99.90;;;;;;5071490;28;20483;-48
2022/07/19 05:39:10;;;;;;;3.90;3.40;;;17.70;99.90;;;;;;5071800;28;20440;-48
2022/07/19 05:41:37;;;;;;;3.57;3.23;;;17.70;99.90;;;;;;5071214;28;20428;-49
2022/07/19 05:44:04;;;;;;;5.33;4.83;;;17.70;99.90;;;;;;5071492;28;20463;-48
2022/07/19 05:46:31;;;;;;;4.17;3.10;;;17.80;99.90;;;;;;5071332;28;20464;-48
2022/07/19 05:48:58;;;;;;;4.30;3.30;;;17.90;99.90;;;;;;5071231;28;20811;-48
2022/07/19 05:51:25;;;;;;;3.20;2.90;;;17.80;99.90;;;;;;5071345;28;20522;-49
2022/07/19 05:53:52;;;;;;;3.47;3.17;;;17.80;99.90;;;;;;5071195;28;20444;-48
2022/07/19 05:56:20;;;;;;;5.60;3.50;;;17.70;99.90;;;;;;5071165;28;20530;-51
2022/07/19 05:58:47;;;;;;;4.50;3.63;;;17.70;99.90;;;;;;5070986;28;20448;-48
2022/07/19 06:01:22;;;;;;;4.03;3.63;;;17.60;99.90;;;;;;5070938;28;20492;-48
2022/07/19 06:03:51;;;;;;;3.53;3.00;;;17.70;99.90;;;;;;5071031;28;20436;-47
2022/07/19 06:06:18;;;;;;;3.83;3.33;;;17.70;99.90;;;;;;5070944;28;20461;-46
2022/07/19 06:08:46;;;;;;;3.50;3.20;;;17.80;99.90;;;;;;5070670;28;20464;-51
2022/07/19 06:11:13;;;;;;;4.70;3.63;;;17.90;99.90;;;;;;5071024;28;20495;-48
2022/07/19 06:13:42;;;;;;;4.67;4.10;;;18.10;99.90;;;;;;5071014;28;21176;-47
2022/07/19 06:16:10;;;;;;;7.23;3.80;;;19.10;99.90;;;;;;5070840;28;20478;-49
2022/07/19 06:18:37;;;;;;;4.87;3.90;;;20.20;99.90;;;;;;5070787;28;20449;-48
2022/07/19 06:21:08;;;;;;;4.10;3.30;;;21.40;99.30;;;;;;5070676;28;21043;-48
2022/07/19 06:23:35;;;;;;;4.93;3.40;;;22.30;97.70;;;;;;5070943;28;20941;-45
2022/07/19 06:26:02;;;;;;;3.90;3.60;;;23.00;96.30;;;;;;5070498;28;20480;-50
2022/07/19 06:28:29;;;;;;;4.20;3.47;;;23.20;95.30;;;;;;5071030;28;20444;-50
2022/07/19 06:30:58;;;;;;;3.60;3.30;;;23.20;94.90;;;;;;5070241;28;20429;-49
2022/07/19 06:33:25;;;;;;;5.27;3.27;;;23.10;94.80;;;;;;5070482;28;20590;-49
2022/07/19 06:35:52;;;;;;;4.30;3.40;;;22.90;95.00;;;;;;5069614;28;20476;-50
2022/07/19 06:38:20;;;;;;;5.07;3.77;;;22.40;95.10;;;;;;5070476;28;20444;-52
2022/07/19 06:40:47;;;;;;;3.70;3.40;;;21.90;94.40;;;;;;5069872;28;20437;-48
2022/07/19 06:43:14;;;;;;;3.50;3.20;;;21.50;94.90;;;;;;5070189;28;20453;-51
2022/07/19 06:45:41;;;;;;;3.80;3.30;;;21.30;95.20;;;;;;5070487;28;20501;-50
2022/07/19 06:48:09;;;;;;;4.20;3.80;;;21.20;95.30;;;;;;5070472;28;20452;-48
2022/07/19 06:50:36;;;;;;;4.10;3.70;;;21.10;95.60;;;;;;5069963;28;20977;-47
2022/07/19 06:53:03;;;;;;;3.73;3.43;;;20.90;95.90;;;;;;5070248;28;20449;-48
2022/07/19 06:55:30;;;;;;;3.60;3.30;;;20.80;96.10;;;;;;5070119;28;20968;-48
2022/07/19 06:57:57;;;;;;;4.80;3.70;;;20.60;96.10;;;;;;5070006;28;20781;-48
2022/07/19 07:00:24;;;;;;;4.57;3.60;;;20.50;96.70;;;;;;5069699;28;20460;-48
2022/07/19 07:02:51;;;;;;;3.70;3.40;;;20.50;96.30;;;;;;5070600;28;20487;-50
2022/07/19 07:05:20;;;;;;;3.80;3.50;;;20.50;96.60;;;;;;5069987;28;20501;-48
2022/07/19 07:07:47;;;;;;;4.43;3.93;;;20.50;96.30;;;;;;5070169;28;20549;-48
2022/07/19 07:10:14;;;;;;;5.30;4.00;;;20.50;96.50;;;;;;5069417;28;20425;-50
2022/07/19 07:12:41;;;;;;;4.40;4.00;;;20.60;96.50;;;;;;5069836;28;20696;-49
2022/07/19 07:15:09;;;;;;;4.00;3.63;;;20.70;97.00;;;;;;5069761;28;20495;-48
2022/07/19 07:17:37;;;;;;;4.50;4.10;;;20.70;96.20;;;;;;5069914;28;20464;-50
2022/07/19 07:20:06;;;;;;;4.50;3.70;;;20.70;96.00;;;;;;5070011;28;20475;-49
2022/07/19 07:22:35;;;;;;;3.77;3.37;;;20.70;96.10;;;;;;5069787;28;20437;-48
2022/07/19 07:25:03;;;;;;;3.80;3.50;;;20.70;95.50;;;;;;5069625;28;20436;-49
2022/07/19 07:27:30;;;;;;;6.80;4.53;;;20.70;94.30;;;;;;5069597;28;20472;-50
2022/07/19 07:29:57;;;;;;;5.90;5.30;;;20.70;95.10;;;;;;5069789;28;20448;-51
2022/07/19 07:32:26;;;;;;;5.50;5.00;;;20.70;95.10;;;;;;5069831;28;20494;-50
2022/07/19 07:34:53;;;;;;;6.30;4.97;;;20.90;94.70;;;;;;5069592;28;20484;-51
2022/07/19 07:37:20;;;;;;;5.90;4.53;;;21.20;94.10;;;;;;5070130;28;20464;-48
2022/07/19 07:39:49;;;;;;;6.73;4.17;;;21.40;94.00;;;;;;5069258;28;20844;-48
2022/07/19 07:42:16;;;;;;;4.27;3.87;;;21.80;93.70;;;;;;5069673;28;20456;-50
2022/07/19 07:44:43;;;;;;;4.40;4.00;;;22.10;94.00;;;;;;5069724;28;20440;-49
2022/07/19 07:47:10;;;;;;;4.30;3.90;;;22.40;93.70;;;;;;5072903;28;20866;-48
2022/07/19 07:49:37;;;;;;;4.13;3.70;;;22.50;93.50;;;;;;5073407;28;20444;-50
2022/07/19 07:52:05;;;;;;;4.10;3.70;;;22.70;93.50;;;;;;5073681;28;20448;-51
2022/07/19 07:54:32;;;;;;;3.93;3.53;;;22.90;92.90;;;;;;5073515;28;20856;-50
2022/07/19 07:57:00;;;;;;;4.47;3.80;;;23.00;92.30;;;;;;5073393;28;20460;-48
2022/07/19 07:59:27;;;;;;;5.27;4.70;;;23.50;92.40;;;;;;5072963;28;20999;-48
2022/07/19 08:01:54;;;;;;;5.03;4.27;;;23.90;92.10;;;;;;5073484;28;20513;-48
2022/07/19 08:04:21;;;;;;;4.10;3.80;;;23.90;91.70;;;;;;5073454;28;20440;-49
2022/07/19 08:06:48;;;;;;;4.40;3.70;;;24.10;91.70;;;;;;5073381;28;20456;-48
2022/07/19 08:09:15;;;;;;;4.40;4.00;;;23.90;91.70;;;;;;5072651;28;20424;-50
2022/07/19 08:11:42;;;;;;;4.40;3.83;;;24.00;91.80;;;;;;5073289;28;20510;-48
2022/07/19 08:14:11;;;;;;;3.80;3.50;;;24.10;91.30;;;;;;5073292;28;20448;-50
2022/07/19 08:16:38;;;;;;;6.03;4.20;;;24.40;91.00;;;;;;5072712;28;20484;-51
2022/07/19 08:19:05;;;;;;;5.60;3.80;;;24.60;91.10;;;;;;5072874;28;20444;-48
2022/07/19 08:21:32;;;;;;;5.33;4.93;;;24.60;91.30;;;;;;5073157;28;20471;-52
2022/07/19 08:23:59;;;;;;;4.73;4.30;;;24.50;91.30;;;;;;5073062;28;20867;-48
2022/07/19 08:26:26;;;;;;;5.10;4.50;;;24.60;91.40;;;;;;5072751;28;20476;-48
2022/07/19 08:28:53;;;;;;;5.40;4.40;;;24.90;91.80;;;;;;5073231;28;20452;-48
2022/07/19 08:31:21;;;;;;;4.07;3.77;;;25.00;91.10;;;;;;5072812;28;20445;-50
2022/07/19 08:33:48;;;;;;;5.07;4.57;;;24.90;91.30;;;;;;5073067;28;20444;-48
2022/07/19 08:36:15;;;;;;;5.50;4.40;;;24.80;90.60;;;;;;5072466;28;20779;-49
2022/07/19 08:38:42;;;;;;;4.13;3.47;;;25.00;90.00;;;;;;5072641;28;20452;-48
2022/07/19 08:41:09;;;;;;;4.40;4.10;;;25.00;89.50;;;;;;5072372;28;20631;-50
2022/07/19 08:43:36;;;;;;;4.03;3.73;;;25.20;89.70;;;;;;5072715;28;20817;-48
2022/07/19 08:46:04;;;;;;;6.63;4.77;;;25.20;89.60;;;;;;5072568;28;20717;-51
2022/07/19 08:48:35;;;;;;;4.43;4.03;;;25.20;90.40;;;;;;5072538;28;20452;-50
2022/07/19 08:51:02;;;;;;;7.33;4.03;;;25.20;90.10;;;;;;5072477;28;20428;-48
2022/07/19 08:53:35;;;;;;;4.57;4.17;;;25.40;91.10;;;;;;5072360;28;20486;-49
2022/07/19 08:57:56;;;;;;;4.90;4.40;;;25.50;89.60;;;;;;5072259;28;20533;-50
2022/07/19 08:58:48;;;;;;;4.20;3.90;;;25.50;88.60;;;;;;5071031;28;21006;-50
2022/07/19 09:01:15;;;;;;;4.20;3.80;;;25.70;90.20;;;;;;5072037;28;20433;-48
2022/07/19 09:04:05;;;;;;;5.37;4.30;;;25.70;90.40;;;;;;5072165;28;20505;-50
2022/07/19 09:06:38;;;;;;;4.70;4.30;;;25.70;90.20;;;;;;5072262;28;20522;-48
2022/07/19 09:09:05;;;;;;;5.73;4.90;;;25.70;90.70;;;;;;5071733;28;20972;-49
2022/07/19 09:11:36;;;;;;;4.17;3.77;;;25.80;91.00;;;;;;5072142;28;20535;-48
2022/07/19 09:14:12;;;;;;;5.87;4.30;;;25.90;90.60;;;;;;5072313;28;20657;-48
2022/07/19 09:17:03;;;;;;;5.00;4.50;;;25.90;90.20;;;;;;5071703;28;20487;-48
2022/07/19 09:19:34;;;;;;;4.37;4.03;;;26.00;89.00;;;;;;5071990;28;20927;-48
2022/07/19 09:22:02;;;;;;;5.57;4.77;;;25.90;90.20;;;;;;5072024;28;20448;-49
2022/07/19 09:24:31;;;;;;;5.10;4.30;;;26.00;89.60;;;;;;5071804;28;20490;-48
2022/07/19 09:27:00;;;;;;;16.00;4.87;;;25.90;88.90;;;;;;5072979;28;20469;-53
2022/07/19 09:29:28;;;;;;;19.40;7.10;;;25.80;88.40;;;;;;5071402;28;20502;-49
2022/07/19 09:32:04;;;;;;;6.30;4.20;;;25.80;89.50;;;;;;5071787;28;20535;-48
2022/07/19 09:34:34;;;;;;;4.20;3.90;;;25.90;90.30;;;;;;5071911;28;20854;-48
2022/07/19 09:37:19;;;;;;;4.70;3.97;;;25.90;90.10;;;;;;5071276;28;20476;-49
2022/07/19 09:39:48;;;;;;;3.90;3.50;;;26.10;90.40;;;;;;5071333;28;20490;-48
2022/07/19 09:42:16;;;;;;;6.70;4.10;;;26.10;89.80;;;;;;5071600;28;20526;-52
2022/07/19 09:44:45;;;;;;;4.73;4.00;;;26.10;89.10;;;;;;5071455;28;20510;-49
2022/07/19 09:47:12;;;;;;;5.37;4.73;;;26.00;89.00;;;;;;5071385;28;20883;-48
2022/07/19 09:49:40;;;;;;;3.80;3.50;;;25.90;87.70;;;;;;5071624;28;20479;-49
2022/07/19 09:52:09;;;;;;;3.33;3.03;;;26.00;87.50;;;;;;5071259;28;20436;-49
2022/07/19 09:54:38;;;;;;;5.20;3.27;;;26.10;88.20;;;;;;5071170;28;20874;-48
2022/07/19 09:57:08;;;;;;;6.73;3.50;;;26.20;84.50;;;;;;5070887;28;20984;-49
2022/07/19 09:59:37;;;;;;;4.80;3.40;;;26.30;85.80;;;;;;5070640;28;20436;-48
2022/07/19 10:02:05;;;;;;;4.30;4.00;;;26.40;83.60;;;;;;5071180;28;20448;-50
2022/07/19 10:04:35;;;;;;;5.70;3.90;;;26.40;84.90;;;;;;5070981;28;20439;-48
2022/07/19 10:07:03;;;;;;;4.40;4.00;;;26.50;85.20;;;;;;5070896;28;20548;-51
2022/07/19 10:09:31;;;;;;;3.77;3.47;;;26.50;85.40;;;;;;5070500;28;20448;-49
2022/07/19 10:11:59;;;;;;;3.53;3.23;;;26.60;82.80;;;;;;5070544;28;20875;-48
2022/07/19 10:14:26;;;;;;;4.87;3.70;;;26.60;81.30;;;;;;5070278;28;20448;-48
2022/07/19 10:17:11;;;;;;;3.63;3.33;;;26.60;82.00;;;;;;5069530;28;20666;-50
2022/07/19 10:19:41;;;;;;;3.93;3.53;;;26.50;79.60;;;;;;5069645;28;20514;-48
2022/07/19 10:22:12;;;;;;;4.00;3.70;;;26.50;81.00;;;;;;5070491;28;20445;-50
2022/07/19 10:24:48;;;;;;;4.20;3.90;;;26.50;82.30;;;;;;5070662;28;20940;-49
2022/07/19 10:27:17;;;;;;;3.87;3.57;;;26.50;82.80;;;;;;5070481;28;20499;-48
2022/07/19 10:29:44;;;;;;;4.17;3.77;;;26.50;84.00;;;;;;5070212;28;20448;-52
2022/07/19 10:32:12;;;;;;;4.20;3.90;;;26.60;84.70;;;;;;5069912;28;20766;-49
2022/07/19 10:34:40;;;;;;;3.60;3.30;;;26.50;84.90;;;;;;5069934;28;20841;-49
2022/07/19 10:37:09;;;;;;;5.20;3.60;;;26.60;85.10;;;;;;5069700;28;20468;-49
2022/07/19 10:39:38;;;;;;;4.13;3.20;;;26.70;84.80;;;;;;5066916;28;20872;-52
2022/07/19 10:42:10;;;;;;;4.93;3.93;;;26.80;85.20;;;;;;5070379;28;20469;-50
2022/07/19 10:45:21;;;;;;;5.20;3.70;;;26.90;83.00;;;;;;5070261;28;20464;-50
2022/07/19 10:48:13;;;;;;;6.60;3.60;;;26.90;81.40;;;;;;5058140;28;20472;-49
2022/07/19 10:50:52;;;;;;;3.70;3.40;;;26.90;81.80;;;;;;5068784;28;20448;-49
2022/07/19 10:53:59;;;;;;;4.00;3.60;;;27.00;82.30;;;;;;5069280;28;20444;-49
2022/07/19 10:56:35;;;;;;;4.60;4.03;;;27.00;83.20;;;;;;5068675;28;20483;-49
2022/07/19 10:59:05;;;;;;;4.73;3.57;;;27.10;83.30;;;;;;5069662;28;20531;-49
2022/07/19 11:01:34;;;;;;;4.33;3.80;;;27.10;84.40;;;;;;5070136;28;20516;-51
2022/07/19 11:04:31;;;;;;;5.03;4.07;;;27.30;85.50;;;;;;5069970;28;20468;-48
2022/07/19 11:07:15;;;;;;;6.73;5.07;;;27.50;86.10;;;;;;5061325;28;20461;-49
2022/07/19 11:09:48;;;;;;;5.70;3.50;;;27.70;86.30;;;;;;5069439;28;20424;-47
2022/07/19 11:12:37;;;;;;;4.00;3.60;;;27.80;84.50;;;;;;5070028;28;20440;-50
2022/07/19 11:15:07;;;;;;;3.67;2.70;;;27.90;83.70;;;;;;5063973;28;20840;-49
2022/07/19 11:17:34;;;;;;;3.47;3.17;;;28.00;81.70;;;;;;5069657;28;20911;-49
2022/07/19 11:20:07;;;;;;;4.00;3.50;;;28.00;80.90;;;;;;5069490;28;20514;-52
2022/07/19 11:22:39;;;;;;;3.50;3.20;;;28.00;78.00;;;;;;5069718;28;20924;-49
2022/07/19 11:25:07;;;;;;;3.73;3.43;;;28.00;82.20;;;;;;5069835;28;20506;-48
2022/07/19 11:27:34;;;;;;;3.67;3.37;;;28.00;80.30;;;;;;5069555;28;21042;-49
2022/07/19 11:30:04;;;;;;;3.60;3.10;;;28.10;81.00;;;;;;5069390;28;21162;-48
2022/07/19 11:32:31;;;;;;;4.60;3.70;;;28.10;82.80;;;;;;5069794;28;20506;-48
2022/07/19 11:35:00;;;;;;;4.97;3.13;;;28.30;83.30;;;;;;5069654;28;20437;-48
2022/07/19 11:37:30;;;;;;;3.60;3.30;;;28.30;79.20;;;;;;5069400;28;20484;-48
2022/07/19 11:39:58;;;;;;;3.50;3.13;;;28.40;81.30;;;;;;5069736;28;20506;-48
2022/07/19 11:42:30;;;;;;;3.77;3.47;;;28.50;82.50;;;;;;5069869;28;20459;-49
2022/07/19 11:44:57;;;;;;;4.50;3.70;;;28.70;83.00;;;;;;5069566;28;20543;-51
2022/07/19 11:47:24;;;;;;;4.40;3.77;;;28.70;81.70;;;;;;5069949;28;20488;-49
2022/07/19 11:49:51;;;;;;;5.37;3.93;;;28.70;81.00;;;;;;5069790;28;20454;-51
2022/07/19 11:52:18;;;;;;;3.83;3.43;;;28.70;81.70;;;;;;5069240;28;20514;-48
2022/07/19 11:55:00;;;;;;;5.17;4.20;;;28.80;80.80;;;;;;5069657;28;20521;-48
2022/07/19 11:57:27;;;;;;;5.90;3.87;;;28.90;81.30;;;;;;5069165;28;20921;-52
2022/07/19 11:59:54;;;;;;;5.57;3.53;;;28.90;82.40;;;;;;5068888;28;20523;-48
2022/07/19 12:02:21;;;;;;;5.43;4.50;;;28.90;83.30;;;;;;5069577;28;20490;-50
2022/07/19 12:04:48;;;;;;;6.30;3.70;;;29.00;82.20;;;;;;5069525;28;20509;-48
2022/07/19 12:07:18;;;;;;;4.87;4.30;;;29.00;82.70;;;;;;5067574;28;21034;-49
2022/07/19 12:09:46;;;;;;;3.90;3.50;;;29.10;81.50;;;;;;5069006;28;20479;-48
2022/07/19 12:12:16;;;;;;;5.47;3.70;;;29.10;82.20;;;;;;5069035;28;20861;-50
2022/07/19 12:14:44;;;;;;;4.23;3.87;;;29.10;81.30;;;;;;5069276;28;20448;-49
2022/07/19 12:17:13;;;;;;;5.27;3.67;;;29.20;82.20;;;;;;5068897;28;20526;-48
2022/07/19 12:19:41;;;;;;;4.27;3.97;;;29.20;83.60;;;;;;5068880;28;21030;-53
2022/07/19 12:22:23;;;;;;;4.30;3.90;;;29.30;82.10;;;;;;5068752;28;20445;-50
2022/07/19 12:24:50;;;;;;;3.80;3.40;;;29.30;82.30;;;;;;5068709;28;20444;-49
2022/07/19 12:27:20;;;;;;;5.30;3.70;;;29.40;81.10;;;;;;5069212;28;20960;-49
2022/07/19 12:29:49;;;;;;;4.30;3.90;;;29.40;82.80;;;;;;5069220;28;20440;-49
2022/07/19 12:32:28;;;;;;;5.83;3.43;;;29.40;83.00;;;;;;5069166;28;20439;-49
2022/07/19 12:34:58;;;;;;;3.93;3.53;;;29.40;82.30;;;;;;5073072;28;21212;-49
2022/07/19 12:37:26;;;;;;;4.63;4.17;;;29.40;82.40;;;;;;5072383;28;20521;-48
2022/07/19 12:40:05;;;;;;;4.03;3.63;;;29.40;82.20;;;;;;5072207;28;20483;-48
2022/07/19 12:42:45;;;;;;;4.00;3.70;;;29.40;81.00;;;;;;5072657;28;20531;-48
2022/07/19 12:45:15;;;;;;;4.23;3.83;;;29.40;81.20;;;;;;5072652;28;20448;-48
2022/07/19 12:47:43;;;;;;;4.67;3.80;;;29.50;80.40;;;;;;5072244;28;20518;-48
2022/07/19 12:50:19;;;;;;;4.77;4.37;;;29.60;79.10;;;;;;5072245;28;20501;-48
2022/07/19 12:52:46;;;;;;;4.77;3.97;;;29.60;80.50;;;;;;5072507;28;20447;-49
2022/07/19 12:55:13;;;;;;;5.67;3.90;;;29.60;81.00;;;;;;5072805;28;20490;-49